Погода Большая Будницана неделю

Псковская область, Россия

23 - 29 июня
  • 23июня
    Сегодня
    +13°
    +19°
    Пасмурно, дождь
    ВремяПогодаТемператураВлажностьДавлениеВетер, м/сВероятность осадков
    00:00Небольшая облачность+16°C69 %743 мм2.7 м/с2 %
    03:00Пасмурно, сплошная облачность+16°C71 %742 мм2.4 м/с13 %
    06:00Пасмурно, ливень+15°C83 %742 мм2.4 м/с56 %
    09:00Пасмурно, ливень+15°C86 %742 мм2.8 м/с61 %
    12:00Пасмурно, ливень+18°C82 %741 мм3.1 м/с67 %
    15:00Пасмурно, дождь+18°C85 %741 мм4.3 м/с78 %
    18:00Пасмурно, дождь+16°C91 %741 мм3.8 м/с74 %
    21:00Пасмурно, ливень+17°C87 %742 мм3.2 м/с56 %
  • 24июня
    Понедельник
    +13°
    +22°
    Небольшая облачность
    ВремяПогодаТемператураВлажностьДавлениеВетер, м/сВероятность осадков
    00:00Облачно с прояснениями+15°C88 %742 мм2.8 м/с32 %
    03:00Практически безоблачно+14°C87 %743 мм2.7 м/с17 %
    06:00Практически безоблачно+15°C89 %743 мм2.3 м/с7 %
    09:00Пасмурно, сплошная облачность+16°C84 %744 мм1.8 м/с9 %
    12:00Облачно с прояснениями+19°C54 %745 мм2.4 м/с8 %
    15:00Небольшая облачность+22°C49 %746 мм2.9 м/с4 %
    18:00Практически безоблачно+22°C47 %746 мм3.4 м/с4 %
    21:00Ясно и безоблачно+19°C66 %747 мм2.7 м/с2 %
  • 25июня
    Вторник
    +14°
    +24°
    Облачно с прояснениями
    ВремяПогодаТемператураВлажностьДавлениеВетер, м/сВероятность осадков
    00:00Ясно и безоблачно+16°C75 %748 мм2.5 м/с2 %
    03:00Ясно и безоблачно+14°C82 %748 мм2.3 м/с2 %
    06:00Ясно и безоблачно+14°C83 %749 мм2.4 м/с2 %
    09:00Небольшая облачность+19°C67 %750 мм2.1 м/с2 %
    12:00Облачно с прояснениями+21°C51 %749 мм3.6 м/с12 %
    15:00Облачно с прояснениями+24°C44 %749 мм5.0 м/с8 %
    18:00Облачно с прояснениями+24°C44 %748 мм4.7 м/с2 %
    21:00Практически безоблачно+20°C56 %748 мм3.8 м/с2 %
  • 26июня
    Среда
    +15°
    +24°
    Небольшая облачность
    ВремяПогодаТемператураВлажностьДавлениеВетер, м/сВероятность осадков
    00:00Небольшая облачность+17°C71 %748 мм3.2 м/с2 %
    03:00Облачно с прояснениями+15°C74 %749 мм3.3 м/с2 %
    06:00Облачно с прояснениями+15°C78 %749 мм2.3 м/с2 %
    09:00Ясно и безоблачно+19°C66 %749 мм2.7 м/с2 %
    12:00Облачно с прояснениями+23°C51 %748 мм4.0 м/с3 %
    15:00Небольшая облачность+23°C52 %748 мм5.2 м/с5 %
    18:00Небольшая облачность+24°C53 %747 мм4.0 м/с7 %
    21:00Практически безоблачно+21°C72 %747 мм1.9 м/с2 %
  • 27июня
    Четверг
    +14°
    +26°
    Практически безоблачно
    ВремяПогодаТемператураВлажностьДавлениеВетер, м/сВероятность осадков
    00:00Ясно и безоблачно+19°C72 %747 мм3.7 м/с2 %
    03:00Ясно и безоблачно+16°C70 %747 мм2.8 м/с2 %
    06:00Ясно и безоблачно+16°C74 %748 мм2.8 м/с2 %
    09:00Ясно и безоблачно+21°C65 %748 мм2.3 м/с2 %
    12:00Ясно и безоблачно+24°C53 %748 мм3.8 м/с2 %
    15:00Практически безоблачно+25°C45 %748 мм4.9 м/с2 %
    18:00Ясно и безоблачно+25°C48 %748 мм3.8 м/с2 %
    21:00Ясно и безоблачно+22°C66 %748 мм2.4 м/с2 %
Мы используем cookies
Соглашаюсь